Bindloss, Canada
Current Conditions -  °F | °C
As of 2:00 AM on Saturday 25 Oct 2014 (Local Time) from CYXH Reporting Station
Broken Clouds Broken Clouds  
Wind Chill:   Ceiling: 17000
Heat Index:   Visibility: 9mi
Dew Point: -2°   Wind: 0mph
Humidity: 75%   Direction: NA
Pressure: 30.05"   Gusts: NA
Location:  50.88°N, 110.27°W
Report Text: CYXH 250800Z AUTO 00000KT 9SM BKN170 02/M02 A3005 RMK SLP190
Loading
Personal Weather Stations






























Interactive Weather Map
Tropical Storm Tracking
New forecast layout! Learn more

10-Day Weather Forecast

Advertisements
Track Severe Weather on mobile